createdAt,value
2018-11-25T00:00:03.256Z,48.93
2018-11-25T00:01:03.110Z,48.95
2018-11-25T00:02:03.047Z,48.99
2018-11-25T00:03:02.902Z,49.01
2018-11-25T00:04:03.117Z,48.96
2018-11-25T00:05:02.795Z,49
2018-11-25T00:06:02.931Z,49.03
2018-11-25T00:07:02.942Z,49.03
2018-11-25T00:08:02.576Z,49
2018-11-25T00:09:03.006Z,49
2018-11-25T00:10:02.893Z,49
2018-11-25T00:11:02.960Z,48.95
2018-11-25T00:12:02.953Z,49.01
2018-11-25T00:13:03.325Z,49.02
2018-11-25T00:14:03.165Z,49.03
2018-11-25T00:15:02.905Z,49.04
2018-11-25T00:16:03.073Z,49.05
2018-11-25T00:17:02.823Z,49.01
2018-11-25T00:18:02.921Z,49.04
2018-11-25T00:19:02.962Z,49.03
2018-11-25T00:20:02.504Z,49.04
2018-11-25T00:21:02.828Z,49.03
2018-11-25T00:22:03.148Z,49.06
2018-11-25T00:23:02.749Z,49.09
2018-11-25T00:24:03.041Z,49.06
2018-11-25T00:25:02.951Z,49.11
2018-11-25T00:26:02.556Z,49.06
2018-11-25T00:27:02.937Z,49.08
2018-11-25T00:28:02.955Z,49.07
2018-11-25T00:29:03.067Z,49.1
2018-11-25T00:30:02.799Z,49.09
2018-11-25T00:31:09.973Z,49.09
2018-11-25T00:32:02.913Z,49.03
2018-11-25T00:33:02.448Z,49.07
2018-11-25T00:34:02.881Z,49.09
2018-11-25T00:35:02.552Z,49.13
2018-11-25T00:36:03.037Z,49.07
2018-11-25T00:37:02.844Z,49.09
2018-11-25T00:38:02.879Z,49.09
2018-11-25T00:39:02.982Z,49.07
2018-11-25T00:40:02.548Z,49.09
2018-11-25T00:41:02.771Z,49.06
2018-11-25T00:42:02.773Z,49.06
2018-11-25T00:43:02.737Z,49.1
2018-11-25T00:44:02.805Z,49.15
2018-11-25T00:45:02.979Z,49.14
2018-11-25T00:46:03.122Z,49.1
2018-11-25T00:47:02.901Z,49.12
2018-11-25T00:48:02.914Z,49.15
2018-11-25T00:49:03.844Z,49.14
2018-11-25T00:50:02.800Z,49.11
2018-11-25T00:51:02.647Z,49.09
2018-11-25T00:52:02.729Z,49.1
2018-11-25T00:53:02.686Z,49.14
2018-11-25T00:54:02.873Z,49.1
2018-11-25T00:55:03.032Z,49.11
2018-11-25T00:56:02.814Z,49.13
2018-11-25T00:57:02.734Z,49.16
2018-11-25T00:58:02.756Z,49.13
2018-11-25T00:59:02.889Z,49.11
2018-11-25T01:00:02.570Z,49.11
2018-11-25T01:01:02.941Z,49.14
2018-11-25T01:02:03.088Z,49.13
2018-11-25T01:03:02.605Z,49.17
2018-11-25T01:04:02.735Z,49.18
2018-11-25T01:05:02.837Z,49.12
2018-11-25T01:06:02.778Z,49.09
2018-11-25T01:07:02.500Z,49.1
2018-11-25T01:08:03.148Z,49.09
2018-11-25T01:09:02.439Z,49.15
2018-11-25T01:10:02.734Z,49.12
2018-11-25T01:11:02.576Z,49.17
2018-11-25T01:12:02.774Z,49.14
2018-11-25T01:13:02.755Z,49.14
2018-11-25T01:14:02.963Z,49.12
2018-11-25T01:15:02.771Z,49.08
2018-11-25T01:16:02.754Z,49.15
2018-11-25T01:17:02.737Z,49.14
2018-11-25T01:18:02.542Z,49.16
2018-11-25T01:19:02.470Z,49.12
2018-11-25T01:20:02.531Z,49.16
2018-11-25T01:21:02.630Z,49.12
2018-11-25T01:22:02.773Z,49.14
2018-11-25T01:23:02.560Z,49.14
2018-11-25T01:24:03.114Z,49.17
2018-11-25T01:25:02.735Z,49.15
2018-11-25T01:26:02.809Z,49.16
2018-11-25T01:27:02.686Z,49.16
2018-11-25T01:28:02.591Z,49.18
2018-11-25T01:29:02.951Z,49.18
2018-11-25T01:30:02.913Z,49.21
2018-11-25T01:31:03.403Z,49.21
2018-11-25T01:32:02.606Z,49.2
2018-11-25T01:33:02.734Z,49.19
2018-11-25T01:34:02.667Z,49.17
2018-11-25T01:35:02.717Z,49.2
2018-11-25T01:36:02.533Z,49.15
2018-11-25T01:37:03.158Z,49.19
2018-11-25T01:38:02.572Z,49.22
2018-11-25T01:39:02.933Z,49.2
2018-11-25T01:40:02.979Z,49.2
2018-11-25T01:41:02.871Z,49.24
2018-11-25T01:42:02.967Z,49.2
2018-11-25T01:43:02.535Z,49.19
2018-11-25T01:44:02.993Z,49.17
2018-11-25T01:45:02.670Z,49.14
2018-11-25T01:46:03.280Z,49.16
2018-11-25T01:47:02.701Z,49.23
2018-11-25T01:48:02.625Z,49.2
2018-11-25T01:49:02.918Z,49.27
2018-11-25T01:50:02.624Z,49.22
2018-11-25T01:51:02.914Z,49.21
2018-11-25T01:52:02.486Z,49.17
2018-11-25T01:53:02.773Z,49.2
2018-11-25T01:54:02.989Z,49.21
2018-11-25T01:55:02.515Z,49.17
2018-11-25T01:56:02.777Z,49.17
2018-11-25T01:57:02.465Z,49.22
2018-11-25T01:58:03.017Z,49.19
2018-11-25T01:59:02.828Z,49.24
2018-11-25T02:00:02.996Z,49.22
2018-11-25T02:01:02.993Z,49.28
2018-11-25T02:02:02.640Z,49.27
2018-11-25T02:03:02.856Z,49.23
2018-11-25T02:04:02.885Z,49.29
2018-11-25T02:05:02.729Z,49.24
2018-11-25T02:06:02.646Z,49.24
2018-11-25T02:07:03.088Z,49.25
2018-11-25T02:08:02.936Z,49.25
2018-11-25T02:09:02.834Z,49.27
2018-11-25T02:10:02.453Z,49.25
2018-11-25T02:11:02.832Z,49.25
2018-11-25T02:12:02.536Z,49.24
2018-11-25T02:13:02.992Z,49.2
2018-11-25T02:14:02.438Z,49.26
2018-11-25T02:15:02.447Z,49.23
2018-11-25T02:16:02.764Z,49.25
2018-11-25T02:17:02.877Z,49.22
2018-11-25T02:18:02.685Z,49.3
2018-11-25T02:19:02.616Z,49.22
2018-11-25T02:20:02.875Z,49.26
2018-11-25T02:21:02.492Z,49.25
2018-11-25T02:22:02.584Z,49.22
2018-11-25T02:23:03.014Z,49.27
2018-11-25T02:24:02.793Z,49.21
2018-11-25T02:25:02.749Z,49.2
2018-11-25T02:26:02.543Z,49.3
2018-11-25T02:27:02.894Z,49.26
2018-11-25T02:28:03.092Z,49.24
2018-11-25T02:29:02.649Z,49.27
2018-11-25T02:30:02.975Z,49.28
2018-11-25T02:31:03.055Z,49.26
2018-11-25T02:32:02.811Z,49.27
2018-11-25T02:33:02.912Z,49.28
2018-11-25T02:34:02.841Z,49.33
2018-11-25T02:35:02.447Z,49.28
2018-11-25T02:36:02.913Z,49.31
2018-11-25T02:37:02.556Z,49.28
2018-11-25T02:38:03.026Z,49.29
2018-11-25T02:39:02.493Z,49.26
2018-11-25T02:40:02.709Z,49.28
2018-11-25T02:41:02.427Z,49.28
2018-11-25T02:42:02.676Z,49.28
2018-11-25T02:43:02.829Z,49.33
2018-11-25T02:44:02.632Z,49.32
2018-11-25T02:45:02.867Z,49.32
2018-11-25T02:46:02.493Z,49.3
2018-11-25T02:47:02.755Z,49.29
2018-11-25T02:48:03.575Z,49.3
2018-11-25T02:49:02.896Z,49.29
2018-11-25T02:50:02.500Z,49.32
2018-11-25T02:51:02.780Z,49.29
2018-11-25T02:52:02.666Z,49.31
2018-11-25T02:53:02.540Z,49.3
2018-11-25T02:54:02.752Z,49.29
2018-11-25T02:55:02.585Z,49.32
2018-11-25T02:56:02.736Z,49.28
2018-11-25T02:57:02.579Z,49.28
2018-11-25T02:58:02.906Z,49.29
2018-11-25T02:59:02.531Z,49.28
2018-11-25T03:00:02.600Z,49.32
2018-11-25T03:01:02.912Z,49.27
2018-11-25T03:02:03.061Z,49.32
2018-11-25T03:03:02.436Z,49.34
2018-11-25T03:04:02.529Z,49.3
2018-11-25T03:05:03.164Z,49.29
2018-11-25T03:06:02.530Z,49.33
2018-11-25T03:07:02.970Z,49.33
2018-11-25T03:08:02.846Z,49.32
2018-11-25T03:09:02.770Z,49.28
2018-11-25T03:10:02.575Z,49.35
2018-11-25T03:11:02.774Z,49.33
2018-11-25T03:12:02.841Z,49.37
2018-11-25T03:13:02.630Z,49.29
2018-11-25T03:14:03.310Z,49.3
2018-11-25T03:15:02.608Z,49.27
2018-11-25T03:16:02.837Z,49.31
2018-11-25T03:17:02.592Z,49.28
2018-11-25T03:18:02.764Z,49.29
2018-11-25T03:19:02.402Z,49.3
2018-11-25T03:20:02.678Z,49.29
2018-11-25T03:21:02.429Z,49.34
2018-11-25T03:22:02.486Z,49.32
2018-11-25T03:23:02.738Z,49.35
2018-11-25T03:24:03.145Z,49.3
2018-11-25T03:25:02.553Z,49.33
2018-11-25T03:26:02.470Z,49.26
2018-11-25T03:27:02.665Z,49.3
2018-11-25T03:28:02.682Z,49.32
2018-11-25T03:29:02.421Z,49.31
2018-11-25T03:30:02.727Z,49.34
2018-11-25T03:31:02.918Z,49.29
2018-11-25T03:32:02.653Z,49.31
2018-11-25T03:33:02.514Z,49.35
2018-11-25T03:34:02.866Z,49.33
2018-11-25T03:35:02.535Z,49.36
2018-11-25T03:36:02.658Z,49.26
2018-11-25T03:37:02.437Z,49.31
2018-11-25T03:38:02.924Z,49.3
2018-11-25T03:39:02.888Z,49.33
2018-11-25T03:40:02.501Z,49.31
2018-11-25T03:41:02.682Z,49.34
2018-11-25T03:42:02.578Z,49.34
2018-11-25T03:43:02.932Z,49.34
2018-11-25T03:44:02.428Z,49.34
2018-11-25T03:45:02.596Z,49.34
2018-11-25T03:46:02.496Z,49.32
2018-11-25T03:47:02.503Z,49.36
2018-11-25T03:48:02.723Z,49.36
2018-11-25T03:49:03.011Z,49.35
2018-11-25T03:50:03.203Z,49.33
2018-11-25T03:51:02.801Z,49.31
2018-11-25T03:52:02.581Z,49.27
2018-11-25T03:53:02.865Z,49.39
2018-11-25T03:54:02.594Z,49.33
2018-11-25T03:55:02.974Z,49.35
2018-11-25T03:56:03.158Z,49.33
2018-11-25T03:57:02.603Z,49.34
2018-11-25T03:58:02.568Z,49.33
2018-11-25T03:59:02.617Z,49.34
2018-11-25T04:00:02.984Z,49.3
2018-11-25T04:01:02.525Z,49.36
2018-11-25T04:02:02.549Z,49.31
2018-11-25T04:03:02.435Z,49.34
2018-11-25T04:04:03.094Z,49.36
2018-11-25T04:05:02.896Z,49.32
2018-11-25T04:06:02.766Z,49.29
2018-11-25T04:07:02.482Z,49.38
2018-11-25T04:08:02.547Z,49.37
2018-11-25T04:09:02.542Z,49.38
2018-11-25T04:10:02.812Z,49.32
2018-11-25T04:11:02.407Z,49.36
2018-11-25T04:12:02.866Z,49.32
2018-11-25T04:13:02.650Z,49.36
2018-11-25T04:14:02.534Z,49.36
2018-11-25T04:15:02.502Z,49.38
2018-11-25T04:16:02.490Z,49.34
2018-11-25T04:17:02.613Z,49.39
2018-11-25T04:18:02.512Z,49.36
2018-11-25T04:19:02.472Z,49.34
2018-11-25T04:20:02.436Z,49.34
2018-11-25T04:21:02.526Z,49.31
2018-11-25T04:22:02.873Z,49.31
2018-11-25T04:23:02.432Z,49.34
2018-11-25T04:24:02.751Z,49.3
2018-11-25T04:25:02.533Z,49.31
2018-11-25T04:26:02.883Z,49.34
2018-11-25T04:27:02.495Z,49.38
2018-11-25T04:28:02.498Z,49.33
2018-11-25T04:29:02.857Z,49.33
2018-11-25T04:30:03.091Z,49.39
2018-11-25T04:31:02.684Z,49.35
2018-11-25T04:32:02.568Z,49.31
2018-11-25T04:33:03.463Z,49.32
2018-11-25T04:34:02.777Z,49.33
2018-11-25T04:35:02.390Z,49.32
2018-11-25T04:36:02.680Z,49.32
2018-11-25T04:37:02.531Z,49.3
2018-11-25T04:38:02.898Z,49.36
2018-11-25T04:39:02.628Z,49.32
2018-11-25T04:40:02.958Z,49.36
2018-11-25T04:41:02.511Z,49.35
2018-11-25T04:42:02.707Z,49.39
2018-11-25T04:43:02.743Z,49.37
2018-11-25T04:44:02.488Z,49.41
2018-11-25T04:45:02.491Z,49.4
2018-11-25T04:46:02.440Z,49.39
2018-11-25T04:47:02.628Z,49.38
2018-11-25T04:48:02.964Z,49.34
2018-11-25T04:49:02.891Z,49.38
2018-11-25T04:50:02.951Z,49.37
2018-11-25T04:51:02.925Z,49.38
2018-11-25T04:52:02.285Z,49.3
2018-11-25T04:53:02.597Z,49.34
2018-11-25T04:54:02.310Z,49.3
2018-11-25T04:55:02.369Z,49.29
2018-11-25T04:56:02.698Z,49.3
2018-11-25T04:57:02.459Z,49.26
2018-11-25T04:58:02.894Z,49.26
2018-11-25T04:59:02.479Z,49.25
2018-11-25T05:00:02.884Z,49.26
2018-11-25T05:01:02.926Z,49.2
2018-11-25T05:02:02.772Z,49.19
2018-11-25T05:03:02.678Z,49.19
2018-11-25T05:04:02.500Z,49.15
2018-11-25T05:05:02.562Z,49.23
2018-11-25T05:06:02.579Z,49.22
2018-11-25T05:07:03.463Z,49.22
2018-11-25T05:08:02.656Z,49.21
2018-11-25T05:09:02.992Z,49.18
2018-11-25T05:10:02.417Z,49.15
2018-11-25T05:11:02.838Z,49.12
2018-11-25T05:12:02.485Z,49.09
2018-11-25T05:13:02.712Z,49.08
2018-11-25T05:14:02.737Z,49.02
2018-11-25T05:15:02.522Z,49.01
2018-11-25T05:16:02.827Z,49.01
2018-11-25T05:17:02.433Z,48.99
2018-11-25T05:18:02.724Z,48.96
2018-11-25T05:19:02.651Z,48.97
2018-11-25T05:20:02.608Z,48.93
2018-11-25T05:21:02.833Z,48.9
2018-11-25T05:22:02.535Z,48.93
2018-11-25T05:23:02.705Z,48.88
2018-11-25T05:24:02.446Z,48.93
2018-11-25T05:25:02.536Z,48.88
2018-11-25T05:26:02.393Z,48.95
2018-11-25T05:27:02.625Z,48.87
2018-11-25T05:28:02.370Z,48.88
2018-11-25T05:29:02.800Z,48.86
2018-11-25T05:30:03.054Z,48.89
2018-11-25T05:31:02.578Z,48.89
2018-11-25T05:32:02.628Z,48.9
2018-11-25T05:33:02.527Z,48.85
2018-11-25T05:34:02.725Z,48.9
2018-11-25T05:35:02.446Z,48.85
2018-11-25T05:36:02.604Z,48.85
2018-11-25T05:37:02.607Z,48.91
2018-11-25T05:38:02.499Z,48.88
2018-11-25T05:39:02.701Z,48.9
2018-11-25T05:40:02.478Z,48.9
2018-11-25T05:41:02.663Z,48.88
2018-11-25T05:42:02.852Z,48.87
2018-11-25T05:43:02.859Z,48.83
2018-11-25T05:44:02.721Z,48.91
2018-11-25T05:45:02.634Z,48.85
2018-11-25T05:46:02.424Z,48.91
2018-11-25T05:47:02.793Z,48.91
2018-11-25T05:48:02.381Z,48.86
2018-11-25T05:49:02.535Z,48.91
2018-11-25T05:50:02.741Z,48.91
2018-11-25T05:51:02.555Z,48.87
2018-11-25T05:52:02.516Z,48.91
2018-11-25T05:53:02.498Z,48.89
2018-11-25T05:54:02.896Z,48.84
2018-11-25T05:55:02.442Z,48.88
2018-11-25T05:56:02.525Z,48.91
2018-11-25T05:57:02.714Z,48.91
2018-11-25T05:58:02.466Z,48.92
2018-11-25T05:59:02.582Z,48.92
2018-11-25T06:00:02.414Z,48.85
2018-11-25T06:01:02.500Z,48.93
2018-11-25T06:02:02.939Z,48.93
2018-11-25T06:03:02.850Z,48.91
2018-11-25T06:04:02.431Z,48.9
2018-11-25T06:05:02.893Z,48.88
2018-11-25T06:06:02.826Z,48.91
2018-11-25T06:07:02.499Z,48.93
2018-11-25T06:08:02.919Z,48.92
2018-11-25T06:09:02.611Z,48.9
2018-11-25T06:10:02.824Z,48.88
2018-11-25T06:11:02.516Z,48.93
2018-11-25T06:12:02.564Z,48.88
2018-11-25T06:13:02.485Z,48.91
2018-11-25T06:14:02.787Z,48.92
2018-11-25T06:15:02.324Z,48.87
2018-11-25T06:16:02.552Z,48.94
2018-11-25T06:17:02.827Z,48.9
2018-11-25T06:18:02.550Z,48.94
2018-11-25T06:19:02.817Z,48.98
2018-11-25T06:20:02.913Z,48.95
2018-11-25T06:21:02.549Z,48.93
2018-11-25T06:22:02.802Z,48.91
2018-11-25T06:23:02.515Z,48.93
2018-11-25T06:24:02.650Z,48.92
2018-11-25T06:25:03.022Z,48.94
2018-11-25T06:26:02.474Z,48.88
2018-11-25T06:27:02.525Z,48.93
2018-11-25T06:28:02.687Z,48.92
2018-11-25T06:29:02.403Z,48.92
2018-11-25T06:30:03.090Z,48.88
2018-11-25T06:31:03.214Z,48.91
2018-11-25T06:32:02.576Z,48.9
2018-11-25T06:33:02.736Z,48.88
2018-11-25T06:34:02.843Z,48.89
2018-11-25T06:35:02.719Z,48.92
2018-11-25T06:36:02.370Z,48.87
2018-11-25T06:37:02.851Z,48.87
2018-11-25T06:38:02.542Z,48.87
2018-11-25T06:39:02.660Z,48.92
2018-11-25T06:40:02.378Z,48.86
2018-11-25T06:41:02.559Z,48.86
2018-11-25T06:42:02.420Z,48.89
2018-11-25T06:43:02.480Z,48.87
2018-11-25T06:44:02.337Z,48.91
2018-11-25T06:45:02.401Z,48.85
2018-11-25T06:46:02.385Z,48.84
2018-11-25T06:47:02.555Z,48.8
2018-11-25T06:48:02.836Z,48.86
2018-11-25T06:49:02.640Z,48.84
2018-11-25T06:50:02.518Z,48.87
2018-11-25T06:51:02.361Z,48.84
2018-11-25T06:52:03.439Z,48.81
2018-11-25T06:53:02.889Z,48.87
2018-11-25T06:54:02.502Z,48.89
2018-11-25T06:55:03.250Z,48.87
2018-11-25T06:56:02.394Z,48.86
2018-11-25T06:57:02.565Z,48.82
2018-11-25T06:58:02.403Z,48.8
2018-11-25T06:59:02.943Z,48.8
2018-11-25T07:00:02.712Z,48.8
2018-11-25T07:01:02.713Z,48.78
2018-11-25T07:02:02.439Z,48.74
2018-11-25T07:03:02.511Z,48.74
2018-11-25T07:04:02.412Z,48.78
2018-11-25T07:05:02.667Z,48.83
2018-11-25T07:06:02.376Z,48.79
2018-11-25T07:07:02.526Z,48.81
2018-11-25T07:08:02.575Z,48.74
2018-11-25T07:09:02.428Z,48.77
2018-11-25T07:10:02.977Z,48.77
2018-11-25T07:11:02.987Z,48.75
2018-11-25T07:12:02.798Z,48.75
2018-11-25T07:13:02.504Z,48.73
2018-11-25T07:14:02.789Z,48.72
2018-11-25T07:15:02.333Z,48.72
2018-11-25T07:16:02.351Z,48.73
2018-11-25T07:17:02.607Z,48.71
2018-11-25T07:18:02.450Z,48.75
2018-11-25T07:19:02.583Z,48.73
2018-11-25T07:20:02.443Z,48.74
2018-11-25T07:21:02.613Z,48.68
2018-11-25T07:22:02.618Z,48.71
2018-11-25T07:23:02.497Z,48.72
2018-11-25T07:24:02.311Z,48.67
2018-11-25T07:25:02.462Z,48.68
2018-11-25T07:26:02.382Z,48.65
2018-11-25T07:27:02.420Z,48.65
2018-11-25T07:29:02.503Z,48.69
2018-11-25T07:30:08.123Z,48.7
2018-11-25T07:31:02.830Z,48.65
2018-11-25T07:32:02.945Z,48.69
2018-11-25T07:33:02.372Z,48.63
2018-11-25T07:34:02.876Z,48.64
2018-11-25T07:35:02.951Z,48.68
2018-11-25T07:36:02.472Z,48.6
2018-11-25T07:37:02.455Z,48.63
2018-11-25T07:38:02.475Z,48.63
2018-11-25T07:39:02.402Z,48.6
2018-11-25T07:40:02.764Z,48.6
2018-11-25T07:41:02.694Z,48.64
2018-11-25T07:42:02.875Z,48.65
2018-11-25T07:43:02.826Z,48.55
2018-11-25T07:44:02.411Z,48.59
2018-11-25T07:45:02.851Z,48.59
2018-11-25T07:46:02.841Z,48.58
2018-11-25T07:47:02.881Z,48.58
2018-11-25T07:48:02.705Z,48.56
2018-11-25T07:49:02.668Z,48.51
2018-11-25T07:50:02.561Z,48.52
2018-11-25T07:51:02.411Z,48.57
2018-11-25T07:52:02.593Z,48.55
2018-11-25T07:53:02.709Z,48.55
2018-11-25T07:54:02.740Z,48.54
2018-11-25T07:55:02.536Z,48.51
2018-11-25T07:56:02.572Z,48.53
2018-11-25T07:57:03.261Z,48.5
2018-11-25T07:58:02.405Z,48.51
2018-11-25T07:59:02.656Z,48.54
2018-11-25T08:00:02.820Z,48.53
2018-11-25T08:01:02.440Z,48.51
2018-11-25T08:02:02.582Z,48.51
2018-11-25T08:03:03.046Z,48.47
2018-11-25T08:04:02.738Z,48.5
2018-11-25T08:05:02.331Z,48.45
2018-11-25T08:06:02.586Z,48.47
2018-11-25T08:07:02.379Z,48.47
2018-11-25T08:08:02.464Z,48.5
2018-11-25T08:09:02.490Z,48.48
2018-11-25T08:10:02.556Z,48.51
2018-11-25T08:11:02.810Z,48.47
2018-11-25T08:12:02.824Z,48.5
2018-11-25T08:13:02.688Z,48.47
2018-11-25T08:14:02.900Z,48.47
2018-11-25T08:15:03.147Z,48.48
2018-11-25T08:16:02.560Z,48.47
2018-11-25T08:17:02.405Z,48.49
2018-11-25T08:18:02.486Z,48.46
2018-11-25T08:19:02.278Z,48.44
2018-11-25T08:20:02.545Z,48.44
2018-11-25T08:21:02.880Z,48.44
2018-11-25T08:22:02.699Z,48.44
2018-11-25T08:23:02.808Z,48.45
2018-11-25T08:24:02.331Z,48.38
2018-11-25T08:25:02.519Z,48.44
2018-11-25T08:26:02.409Z,48.39
2018-11-25T08:27:02.290Z,48.41
2018-11-25T08:28:02.616Z,48.41
2018-11-25T08:29:02.863Z,48.36
2018-11-25T08:30:02.875Z,48.33
2018-11-25T08:31:02.672Z,48.4
2018-11-25T08:32:02.880Z,48.44
2018-11-25T08:33:02.346Z,48.56
2018-11-25T08:34:02.786Z,48.51
2018-11-25T08:35:02.524Z,48.53
2018-11-25T08:36:02.828Z,48.56
2018-11-25T08:37:02.619Z,48.58
2018-11-25T08:38:02.440Z,48.56
2018-11-25T08:39:02.545Z,48.61
2018-11-25T08:40:02.455Z,48.63
2018-11-25T08:41:02.814Z,48.69
2018-11-25T08:42:02.356Z,48.45
2018-11-25T08:43:02.827Z,48.4
2018-11-25T08:44:02.335Z,48.49
2018-11-25T08:45:02.758Z,48.5
2018-11-25T08:46:02.332Z,48.47
2018-11-25T08:47:03.076Z,48.47
2018-11-25T08:48:02.756Z,48.47
2018-11-25T08:49:02.290Z,48.43
2018-11-25T08:50:02.498Z,48.42
2018-11-25T08:51:02.369Z,48.42
2018-11-25T08:52:02.485Z,48.31
2018-11-25T08:53:02.728Z,48.36
2018-11-25T08:54:02.499Z,48.34
2018-11-25T08:55:02.514Z,48.32
2018-11-25T08:56:02.726Z,48.34
2018-11-25T08:57:02.513Z,48.31
2018-11-25T08:58:02.599Z,48.32
2018-11-25T08:59:02.583Z,48.38
2018-11-25T09:00:02.419Z,48.35
2018-11-25T09:01:02.495Z,48.27
2018-11-25T09:02:02.651Z,48.3
2018-11-25T09:03:02.880Z,48.33
2018-11-25T09:04:02.360Z,48.3
2018-11-25T09:05:02.495Z,48.36
2018-11-25T09:06:02.370Z,48.33
2018-11-25T09:07:02.383Z,48.3
2018-11-25T09:08:02.564Z,48.28
2018-11-25T09:09:02.343Z,48.31
2018-11-25T09:10:02.508Z,48.26
2018-11-25T09:11:02.414Z,48.31
2018-11-25T09:12:02.491Z,48.27
2018-11-25T09:13:02.911Z,48.29
2018-11-25T09:14:02.417Z,48.3
2018-11-25T09:15:02.316Z,48.32
2018-11-25T09:16:02.359Z,48.27
2018-11-25T09:17:02.587Z,48.27
2018-11-25T09:18:02.464Z,48.27
2018-11-25T09:19:02.568Z,48.55
2018-11-25T09:20:02.485Z,48.49
2018-11-25T09:21:03.306Z,48.33
2018-11-25T09:22:02.593Z,47.88
2018-11-25T09:23:02.479Z,47.8
2018-11-25T09:24:02.342Z,47.73
2018-11-25T09:25:02.261Z,47.36
2018-11-25T09:26:02.603Z,47.28
2018-11-25T09:27:02.337Z,47.4
2018-11-25T09:28:02.530Z,47.32
2018-11-25T09:29:02.431Z,47.05
2018-11-25T09:30:02.803Z,47.22
2018-11-25T09:31:02.487Z,47.04
2018-11-25T09:32:02.640Z,46.97
2018-11-25T09:33:02.460Z,47
2018-11-25T09:34:02.313Z,46.89
2018-11-25T09:35:02.758Z,46.97
2018-11-25T09:36:02.392Z,46.84
2018-11-25T09:37:02.436Z,46.9
2018-11-25T09:38:02.481Z,46.83
2018-11-25T09:39:02.474Z,47.25
2018-11-25T09:40:02.598Z,46.87
2018-11-25T09:41:02.472Z,47.12
2018-11-25T09:42:02.549Z,46.6
2018-11-25T09:43:02.873Z,47.46
2018-11-25T09:44:02.958Z,47.75
2018-11-25T09:45:02.511Z,48.1
2018-11-25T09:46:02.608Z,47.66
2018-11-25T09:47:02.225Z,47.5
2018-11-25T09:48:02.387Z,47.31
2018-11-25T09:49:02.908Z,47.57
2018-11-25T09:50:02.391Z,47.5
2018-11-25T09:51:03.124Z,47.84
2018-11-25T09:52:03.374Z,47.41
2018-11-25T09:53:02.794Z,47.3
2018-11-25T09:54:02.288Z,47.24
2018-11-25T09:55:02.728Z,47.41
2018-11-25T09:56:02.245Z,47.18
2018-11-25T09:57:02.459Z,47.31
2018-11-25T09:58:02.987Z,47.42
2018-11-25T09:59:02.711Z,47.17
2018-11-25T10:00:02.881Z,47
2018-11-25T10:01:02.267Z,47.05
2018-11-25T10:02:02.483Z,47.35
2018-11-25T10:03:02.646Z,47.88
2018-11-25T10:04:02.485Z,47.59
2018-11-25T10:05:02.810Z,47.34
2018-11-25T10:06:02.682Z,47.19
2018-11-25T10:07:02.880Z,47.55
2018-11-25T10:08:02.614Z,47.1
2018-11-25T10:09:02.544Z,47.13
2018-11-25T10:10:02.285Z,47.19
2018-11-25T10:11:02.842Z,47.39
2018-11-25T10:12:02.566Z,47.59
2018-11-25T10:13:02.890Z,47.5
2018-11-25T10:14:02.482Z,47.29
2018-11-25T10:15:02.519Z,47.28
2018-11-25T10:16:02.937Z,47.29
2018-11-25T10:17:02.836Z,47.23
2018-11-25T10:18:02.718Z,47.62
2018-11-25T10:19:02.837Z,47.52
2018-11-25T10:20:02.468Z,47.95
2018-11-25T10:21:02.361Z,47.71
2018-11-25T10:22:02.802Z,47.64
2018-11-25T10:23:02.823Z,47.72
2018-11-25T10:24:02.269Z,48.37
2018-11-25T10:25:02.426Z,48.62
2018-11-25T10:26:02.324Z,48.36
2018-11-25T10:27:02.450Z,48.16
2018-11-25T10:28:02.491Z,48.13
2018-11-25T10:29:02.590Z,48.14
2018-11-25T10:30:02.269Z,47.68
2018-11-25T10:31:02.509Z,47.76
2018-11-25T10:32:02.563Z,47.54
2018-11-25T10:33:03.275Z,47.61
2018-11-25T10:34:02.394Z,47.55
2018-11-25T10:35:02.385Z,48.18
2018-11-25T10:36:04.905Z,48.11
2018-11-25T10:37:02.276Z,48.51
2018-11-25T10:38:02.513Z,48.42
2018-11-25T10:39:02.297Z,48.58
2018-11-25T10:40:02.459Z,48.63
2018-11-25T10:41:02.537Z,48.37
2018-11-25T10:42:02.382Z,48.63
2018-11-25T10:43:02.572Z,48.44
2018-11-25T10:44:02.781Z,48.53
2018-11-25T10:45:02.489Z,48.33
2018-11-25T10:46:02.593Z,48.36
2018-11-25T10:47:02.353Z,48.93
2018-11-25T10:48:03.064Z,48.44
2018-11-25T10:49:02.428Z,47.56
2018-11-25T10:50:02.437Z,48.45
2018-11-25T10:51:02.750Z,48.54
2018-11-25T10:52:02.497Z,48.13
2018-11-25T10:53:02.959Z,48.4
2018-11-25T10:54:02.980Z,48.59
2018-11-25T10:55:02.392Z,48.63
2018-11-25T10:56:03.239Z,48.97
2018-11-25T10:57:03.004Z,48.58
2018-11-25T10:58:02.694Z,48.83
2018-11-25T10:59:02.897Z,47.99
2018-11-25T11:00:02.610Z,47.88
2018-11-25T11:01:02.748Z,47.92
2018-11-25T11:02:02.360Z,47.91
2018-11-25T11:03:02.457Z,47.95
2018-11-25T11:04:02.536Z,48.17
2018-11-25T11:05:02.769Z,48.04
2018-11-25T11:06:02.738Z,48.18
2018-11-25T11:07:02.481Z,48.07
2018-11-25T11:08:02.926Z,48.01
2018-11-25T11:09:02.532Z,47.94
2018-11-25T11:10:02.910Z,48.04
2018-11-25T11:11:02.304Z,48.2
2018-11-25T11:12:02.581Z,48.09
2018-11-25T11:13:02.605Z,48.08
2018-11-25T11:14:02.836Z,48.26
2018-11-25T11:15:02.453Z,48.09
2018-11-25T11:16:02.411Z,48.18
2018-11-25T11:17:02.453Z,48.11
2018-11-25T11:18:02.937Z,48.13
2018-11-25T11:19:02.369Z,48.08
2018-11-25T11:20:02.552Z,48.07
2018-11-25T11:21:02.642Z,48
2018-11-25T11:22:03.180Z,48.2
2018-11-25T11:23:02.560Z,48.16
2018-11-25T11:24:02.467Z,48.09
2018-11-25T11:25:02.181Z,48.19
2018-11-25T11:26:07.483Z,48.69
2018-11-25T11:27:02.637Z,48.52
2018-11-25T11:28:03.455Z,48.82
2018-11-25T11:29:03.797Z,48.82
2018-11-25T11:30:04.427Z,48.68
2018-11-25T11:31:04.634Z,48.51
2018-11-25T11:32:02.949Z,48.11
2018-11-25T11:33:02.721Z,48.1
2018-11-25T11:34:02.794Z,48.18
2018-11-25T11:35:02.740Z,48.25
2018-11-25T11:36:02.384Z,48.27
2018-11-25T11:37:02.623Z,48.19
2018-11-25T11:38:02.476Z,48.3
2018-11-25T11:39:02.664Z,48.26
2018-11-25T11:40:02.797Z,48.3
2018-11-25T11:41:02.517Z,48.31
2018-11-25T11:42:02.401Z,48.62
2018-11-25T11:43:03.341Z,48.63
2018-11-25T11:44:02.456Z,48.84
2018-11-25T11:45:02.647Z,48.86
2018-11-25T11:46:02.954Z,48.96
2018-11-25T11:47:02.696Z,48.98
2018-11-25T11:48:05.445Z,48.57
2018-11-25T11:49:02.657Z,48.85
2018-11-25T11:50:02.768Z,48.67
2018-11-25T11:51:02.513Z,48.62
2018-11-25T11:52:02.593Z,48.64
2018-11-25T11:53:02.365Z,48.92
2018-11-25T11:54:02.372Z,48.58
2018-11-25T11:55:02.552Z,48.69
2018-11-25T11:56:02.189Z,48.53
2018-11-25T11:57:02.244Z,48.6
2018-11-25T11:58:02.481Z,48.61
2018-11-25T11:59:02.266Z,48.56
2018-11-25T12:00:02.405Z,48.7
2018-11-25T12:01:02.167Z,48.73
2018-11-25T12:02:02.322Z,48.9
2018-11-25T12:03:02.139Z,49.11
2018-11-25T12:04:02.379Z,49.13
2018-11-25T12:05:02.186Z,49.09
2018-11-25T12:06:02.155Z,48.59
2018-11-25T12:07:02.562Z,48.54
2018-11-25T12:08:02.446Z,48.7
2018-11-25T12:09:02.572Z,48.62
2018-11-25T12:10:02.608Z,48.55
2018-11-25T12:11:02.461Z,48.32
2018-11-25T12:12:02.249Z,48.48
2018-11-25T12:13:02.388Z,48.38
2018-11-25T12:14:02.505Z,48.4
2018-11-25T12:15:02.585Z,48.38
2018-11-25T12:16:02.347Z,48.4
2018-11-25T12:17:02.431Z,48.45
2018-11-25T12:18:02.317Z,48.4
2018-11-25T12:19:02.516Z,48.36
2018-11-25T12:20:02.651Z,48.35
2018-11-25T12:21:02.816Z,48.44
2018-11-25T12:22:02.531Z,48.48
2018-11-25T12:23:02.969Z,48.48
2018-11-25T12:24:02.970Z,48.55
2018-11-25T12:25:02.515Z,48.53
2018-11-25T12:26:02.574Z,48.65
2018-11-25T12:27:02.389Z,48.59
2018-11-25T12:28:02.516Z,48.71
2018-11-25T12:29:02.828Z,48.62
2018-11-25T12:30:02.288Z,48.75
2018-11-25T12:31:02.290Z,48.63
2018-11-25T12:32:02.563Z,48.65
2018-11-25T12:33:02.473Z,48.64
2018-11-25T12:34:03.743Z,48.33
2018-11-25T12:35:02.299Z,48.36
2018-11-25T12:36:02.386Z,48.28
2018-11-25T12:37:02.346Z,48.39
2018-11-25T12:38:02.346Z,48.29
2018-11-25T12:39:02.773Z,48.3
2018-11-25T12:40:02.836Z,48.27
2018-11-25T12:41:02.797Z,48.28
2018-11-25T12:42:02.635Z,48.27
2018-11-25T12:43:02.950Z,48.21
2018-11-25T12:44:02.594Z,48.23
2018-11-25T12:45:02.762Z,48.21
2018-11-25T12:46:03.384Z,48.17
2018-11-25T12:47:02.345Z,48.15
2018-11-25T12:48:02.370Z,48.17
2018-11-25T12:49:02.681Z,48.14
2018-11-25T12:50:02.538Z,48.12
2018-11-25T12:51:02.279Z,48.1
2018-11-25T12:52:02.523Z,48.11
2018-11-25T12:53:02.361Z,48.1
2018-11-25T12:54:02.640Z,48.09
2018-11-25T12:55:02.360Z,48.06
2018-11-25T12:56:02.931Z,48.09
2018-11-25T12:57:02.270Z,48.09